Time;durP1;ratioP1;P1;durP2;ratioP2;P2;SDS_P1;SDS_P2;PMS_P1;PMS_P2;Temp;Humidity;BMP_temperature;BMP_pressure;BME280_temperature;BME280_humidity;BME280_pressure;Samples;Min_cycle;Max_cycle;Signal;HPM_P1;HPM_P2
2022/01/17 00:01:24;;;;;;;;;41.00;34.75;;;;;;;;5063076;28;45581;-67
2022/01/17 00:03:49;;;;;;;;;40.75;35.50;;;;;;;;5073316;27;45381;-67
2022/01/17 00:06:15;;;;;;;;;32.25;30.75;;;;;;;;5073507;28;45552;-67
2022/01/17 00:08:42;;;;;;;;;42.00;38.25;;;;;;;;5069811;27;45622;-67
2022/01/17 00:11:08;;;;;;;;;40.00;35.50;;;;;;;;5071797;27;45796;-67
2022/01/17 00:13:33;;;;;;;;;38.75;34.00;;;;;;;;5071726;28;45510;-67
2022/01/17 00:16:05;;;;;;;;;37.50;35.25;;;;;;;;5071538;28;45436;-67
2022/01/17 00:21:02;;;;;;;;;40.00;36.25;;;;;;;;5074117;27;46057;-67
2022/01/17 00:23:28;;;;;;;;;33.75;29.25;;;;;;;;5071511;27;45526;-67
2022/01/17 00:25:53;;;;;;;;;34.75;34.00;;;;;;;;5070242;27;45470;-65
2022/01/17 00:28:18;;;;;;;;;38.25;35.25;;;;;;;;5073387;27;45509;-66
2022/01/17 00:30:43;;;;;;;;;35.50;33.50;;;;;;;;5071560;28;45935;-66
2022/01/17 00:33:08;;;;;;;;;33.00;31.00;;;;;;;;5075204;27;45441;-66
2022/01/17 00:35:34;;;;;;;;;41.75;34.50;;;;;;;;5071978;27;45554;-66
2022/01/17 00:37:59;;;;;;;;;31.75;28.00;;;;;;;;5072742;27;45422;-67
2022/01/17 00:40:25;;;;;;;;;37.25;32.50;;;;;;;;5073357;28;45814;-67
2022/01/17 00:42:50;;;;;;;;;33.75;31.50;;;;;;;;5073004;27;45522;-67
2022/01/17 00:45:15;;;;;;;;;32.25;31.25;;;;;;;;5075189;28;45370;-67
2022/01/17 00:47:41;;;;;;;;;23.75;22.75;;;;;;;;5074006;28;45471;-66
2022/01/17 00:50:07;;;;;;;;;26.25;26.00;;;;;;;;5071036;27;46537;-66
2022/01/17 00:52:32;;;;;;;;;33.50;33.00;;;;;;;;5072247;27;45963;-66
2022/01/17 00:54:58;;;;;;;;;28.00;25.75;;;;;;;;5073106;28;45349;-66
2022/01/17 00:57:23;;;;;;;;;34.00;32.00;;;;;;;;5074259;28;45316;-68
2022/01/17 00:59:48;;;;;;;;;42.25;32.75;;;;;;;;5074093;28;46306;-66
2022/01/17 01:02:14;;;;;;;;;36.75;33.75;;;;;;;;5071945;28;45432;-67
2022/01/17 01:04:39;;;;;;;;;38.50;33.50;;;;;;;;5073527;27;45990;-66
2022/01/17 01:07:04;;;;;;;;;30.25;29.75;;;;;;;;5073234;28;45354;-66
2022/01/17 01:09:35;;;;;;;;;33.75;29.75;;;;;;;;5072956;28;45873;-67
2022/01/17 01:12:00;;;;;;;;;32.00;29.00;;;;;;;;5072866;27;45379;-67
2022/01/17 01:14:25;;;;;;;;;36.00;35.25;;;;;;;;5070636;28;45397;-66
2022/01/17 01:16:53;;;;;;;;;34.75;33.25;;;;;;;;5073322;27;45369;-67
2022/01/17 01:30:02;;;;;;;;;39.00;37.25;;;;;;;;5072666;28;45503;-65
2022/01/17 01:32:36;;;;;;;;;33.50;32.75;;;;;;;;5070217;27;45619;-67
2022/01/17 01:35:04;;;;;;;;;40.75;33.75;;;;;;;;5071133;28;45399;-67
2022/01/17 01:37:29;;;;;;;;;36.50;33.50;;;;;;;;5072355;27;47613;-67
2022/01/17 01:39:55;;;;;;;;;35.50;31.25;;;;;;;;5071696;28;45582;-66
2022/01/17 01:42:22;;;;;;;;;37.50;35.75;;;;;;;;5073209;28;45438;-66
2022/01/17 01:44:50;;;;;;;;;39.00;35.00;;;;;;;;5073456;27;45419;-66
2022/01/17 01:47:16;;;;;;;;;33.50;33.50;;;;;;;;5073662;28;45738;-66
2022/01/17 01:49:41;;;;;;;;;34.75;31.00;;;;;;;;5074753;28;48475;-66
2022/01/17 01:52:06;;;;;;;;;39.25;35.00;;;;;;;;5073784;28;46269;-66
2022/01/17 01:54:31;;;;;;;;;36.75;32.00;;;;;;;;5072146;28;45487;-67
2022/01/17 01:56:57;;;;;;;;;33.25;32.75;;;;;;;;5074139;27;45402;-68
2022/01/17 01:59:22;;;;;;;;;44.00;37.25;;;;;;;;5071890;27;45671;-67
2022/01/17 02:01:49;;;;;;;;;41.50;36.25;;;;;;;;5072096;27;45458;-67
2022/01/17 02:04:15;;;;;;;;;41.25;36.00;;;;;;;;5071865;28;45523;-66
2022/01/17 02:06:40;;;;;;;;;34.25;31.50;;;;;;;;5071888;27;45650;-67
2022/01/17 02:09:05;;;;;;;;;36.75;35.25;;;;;;;;5073539;27;46470;-66
2022/01/17 02:11:34;;;;;;;;;37.75;34.75;;;;;;;;5066870;28;45482;-67
2022/01/17 02:14:00;;;;;;;;;43.50;37.75;;;;;;;;5069538;28;45909;-67
2022/01/17 02:16:25;;;;;;;;;43.50;39.00;;;;;;;;5072298;28;45502;-67
2022/01/17 02:18:51;;;;;;;;;34.50;31.50;;;;;;;;5072403;27;46571;-66
2022/01/17 02:23:47;;;;;;;;;40.50;36.25;;;;;;;;5072422;28;45321;-66
2022/01/17 02:26:12;;;;;;;;;42.50;37.00;;;;;;;;5070742;28;45590;-68
2022/01/17 02:28:39;;;;;;;;;39.25;35.50;;;;;;;;5071887;27;45610;-66
2022/01/17 02:31:05;;;;;;;;;43.25;37.50;;;;;;;;5071529;27;45504;-65
2022/01/17 02:33:31;;;;;;;;;28.25;25.50;;;;;;;;5071738;28;45385;-65
2022/01/17 02:35:56;;;;;;;;;37.50;34.75;;;;;;;;5074304;27;45382;-66
2022/01/17 02:38:21;;;;;;;;;36.25;31.50;;;;;;;;5070227;27;45845;-66
2022/01/17 02:40:48;;;;;;;;;41.50;37.75;;;;;;;;5070223;28;45419;-67
2022/01/17 02:43:14;;;;;;;;;38.25;34.50;;;;;;;;5072006;28;45199;-65
2022/01/17 02:48:17;;;;;;;;;33.00;31.00;;;;;;;;5068318;28;46466;-66
2022/01/17 02:50:42;;;;;;;;;42.25;37.50;;;;;;;;5069855;27;45399;-66
2022/01/17 02:53:09;;;;;;;;;35.00;29.00;;;;;;;;5069690;27;45435;-66
2022/01/17 02:55:34;;;;;;;;;40.75;37.00;;;;;;;;5068483;27;45343;-65
2022/01/17 02:58:00;;;;;;;;;39.75;37.50;;;;;;;;5069481;27;46487;-65
2022/01/17 03:00:25;;;;;;;;;39.75;36.00;;;;;;;;5068239;28;45392;-66
2022/01/17 03:02:50;;;;;;;;;41.50;38.25;;;;;;;;5071150;28;45821;-65
2022/01/17 03:05:16;;;;;;;;;47.00;37.50;;;;;;;;5068255;28;45783;-66
2022/01/17 03:07:42;;;;;;;;;44.50;38.50;;;;;;;;5069704;27;46619;-66
2022/01/17 03:10:14;;;;;;;;;38.50;36.50;;;;;;;;5070915;27;45519;-66
2022/01/17 03:12:39;;;;;;;;;39.00;35.00;;;;;;;;5068633;28;45516;-66
2022/01/17 03:15:05;;;;;;;;;41.75;37.00;;;;;;;;5069469;28;45385;-66
2022/01/17 03:17:30;;;;;;;;;37.00;35.50;;;;;;;;5067445;27;46472;-66
2022/01/17 03:19:55;;;;;;;;;33.00;28.00;;;;;;;;5070740;28;45430;-65
2022/01/17 03:22:20;;;;;;;;;38.50;34.25;;;;;;;;5069544;28;45445;-66
2022/01/17 03:24:46;;;;;;;;;32.50;31.00;;;;;;;;5071203;28;45471;-66
2022/01/17 03:27:11;;;;;;;;;36.00;35.00;;;;;;;;5072694;28;46892;-64
2022/01/17 03:29:36;;;;;;;;;35.75;33.50;;;;;;;;5070840;27;45266;-66
2022/01/17 03:32:01;;;;;;;;;44.50;39.25;;;;;;;;5071345;27;45519;-66
2022/01/17 03:34:27;;;;;;;;;38.00;34.50;;;;;;;;5071652;28;45806;-66
2022/01/17 03:36:52;;;;;;;;;36.00;34.50;;;;;;;;5071789;27;45682;-66
2022/01/17 03:39:17;;;;;;;;;37.25;35.00;;;;;;;;5072156;27;45407;-66
2022/01/17 03:41:42;;;;;;;;;41.00;37.50;;;;;;;;5070313;28;45497;-66
2022/01/17 03:44:08;;;;;;;;;40.75;39.00;;;;;;;;5070098;28;45595;-64
2022/01/17 03:46:33;;;;;;;;;35.50;34.25;;;;;;;;5069941;28;46299;-66
2022/01/17 03:48:59;;;;;;;;;37.50;36.25;;;;;;;;5070230;28;45499;-66
2022/01/17 03:51:24;;;;;;;;;47.50;40.75;;;;;;;;5068313;28;45456;-65
2022/01/17 03:53:49;;;;;;;;;48.50;40.75;;;;;;;;5071777;28;45408;-65
2022/01/17 03:56:16;;;;;;;;;37.75;35.25;;;;;;;;5046491;28;46363;-65
2022/01/17 03:58:41;;;;;;;;;42.50;37.00;;;;;;;;5071236;27;45408;-65
2022/01/17 04:01:07;;;;;;;;;46.75;37.00;;;;;;;;5070248;28;45341;-65
2022/01/17 04:03:32;;;;;;;;;42.00;38.00;;;;;;;;5070627;28;45338;-65
2022/01/17 04:05:57;;;;;;;;;41.50;37.50;;;;;;;;5072599;27;45616;-65
2022/01/17 04:08:23;;;;;;;;;38.50;35.50;;;;;;;;5074442;27;45444;-65
2022/01/17 04:10:48;;;;;;;;;39.75;35.50;;;;;;;;5074628;28;45497;-65
2022/01/17 04:13:13;;;;;;;;;45.25;38.00;;;;;;;;5074628;28;45522;-66
2022/01/17 04:15:39;;;;;;;;;40.50;38.00;;;;;;;;5073483;28;45773;-65
2022/01/17 04:18:05;;;;;;;;;43.25;38.50;;;;;;;;5075773;27;45438;-65
2022/01/17 04:20:31;;;;;;;;;43.75;39.00;;;;;;;;5072525;28;45620;-66
2022/01/17 04:23:06;;;;;;;;;39.00;36.50;;;;;;;;5072149;27;45504;-66
2022/01/17 04:25:32;;;;;;;;;49.50;42.25;;;;;;;;5073667;27;45831;-65
2022/01/17 04:27:58;;;;;;;;;39.75;37.00;;;;;;;;5073926;27;45471;-65
2022/01/17 04:30:24;;;;;;;;;41.25;37.50;;;;;;;;5074151;28;45445;-66
2022/01/17 04:32:49;;;;;;;;;45.25;39.75;;;;;;;;5075398;28;45458;-66
2022/01/17 04:35:20;;;;;;;;;39.50;36.00;;;;;;;;5074093;27;45921;-65
2022/01/17 04:37:46;;;;;;;;;38.50;35.50;;;;;;;;5074042;27;49817;-66
2022/01/17 04:40:11;;;;;;;;;43.75;37.75;;;;;;;;5073980;27;45523;-65
2022/01/17 04:42:43;;;;;;;;;39.50;34.50;;;;;;;;5072733;28;45403;-65
2022/01/17 04:45:10;;;;;;;;;43.25;39.50;;;;;;;;5075835;27;46436;-66
2022/01/17 04:47:36;;;;;;;;;45.25;36.75;;;;;;;;5071302;27;45349;-65
2022/01/17 04:50:05;;;;;;;;;45.50;36.75;;;;;;;;5073953;27;45865;-66
2022/01/17 04:52:31;;;;;;;;;38.50;35.50;;;;;;;;5073922;27;45457;-66
2022/01/17 04:55:00;;;;;;;;;39.75;37.00;;;;;;;;5073546;28;45502;-66
2022/01/17 04:57:25;;;;;;;;;46.00;39.75;;;;;;;;5074146;28;45434;-66
2022/01/17 04:59:51;;;;;;;;;50.25;39.00;;;;;;;;5074974;28;45929;-65
2022/01/17 05:02:16;;;;;;;;;30.75;29.50;;;;;;;;5073453;28;45495;-65
2022/01/17 05:04:44;;;;;;;;;46.50;38.00;;;;;;;;5071175;28;45988;-65
2022/01/17 05:07:09;;;;;;;;;40.50;37.50;;;;;;;;5073213;27;45369;-65
2022/01/17 05:09:35;;;;;;;;;43.50;40.25;;;;;;;;5072484;28;45832;-66
2022/01/17 05:12:00;;;;;;;;;40.00;36.75;;;;;;;;5075993;27;45309;-65
2022/01/17 05:14:26;;;;;;;;;40.25;37.25;;;;;;;;5072989;28;46391;-66
2022/01/17 05:17:00;;;;;;;;;43.00;37.75;;;;;;;;5072636;27;45676;-65
2022/01/17 05:22:08;;;;;;;;;51.25;40.50;;;;;;;;5073343;28;45477;-65
2022/01/17 05:24:34;;;;;;;;;39.75;36.75;;;;;;;;5052945;28;46436;-65
2022/01/17 05:26:59;;;;;;;;;38.00;35.50;;;;;;;;5073561;28;45365;-66
2022/01/17 05:29:24;;;;;;;;;45.50;39.00;;;;;;;;5071083;27;45222;-65
2022/01/17 05:31:49;;;;;;;;;41.25;37.25;;;;;;;;5068738;27;45362;-65
2022/01/17 05:34:14;;;;;;;;;45.50;38.50;;;;;;;;5058464;28;46566;-65
2022/01/17 05:36:40;;;;;;;;;46.50;41.00;;;;;;;;5066276;28;45446;-65
2022/01/17 05:39:05;;;;;;;;;43.50;37.25;;;;;;;;5066160;27;45371;-65
2022/01/17 05:41:30;;;;;;;;;44.50;39.25;;;;;;;;5062039;28;45423;-65
2022/01/17 05:43:55;;;;;;;;;37.00;36.00;;;;;;;;5064531;28;46687;-65
2022/01/17 05:46:21;;;;;;;;;36.00;33.75;;;;;;;;5071407;27;45460;-66
2022/01/17 05:48:46;;;;;;;;;47.00;37.50;;;;;;;;5073427;28;45398;-65
2022/01/17 05:51:11;;;;;;;;;37.75;35.25;;;;;;;;5075265;27;45559;-66
2022/01/17 05:53:36;;;;;;;;;47.25;38.50;;;;;;;;5072772;27;46448;-64
2022/01/17 05:56:01;;;;;;;;;36.75;34.00;;;;;;;;5072940;27;45449;-63
2022/01/17 05:58:27;;;;;;;;;40.50;35.25;;;;;;;;5072847;27;45411;-64
2022/01/17 06:00:53;;;;;;;;;40.75;34.75;;;;;;;;5072942;27;45444;-64
2022/01/17 06:03:18;;;;;;;;;39.75;35.50;;;;;;;;5072775;27;48414;-65
2022/01/17 06:05:43;;;;;;;;;34.25;29.00;;;;;;;;5071421;28;45434;-64
2022/01/17 06:08:09;;;;;;;;;35.00;33.75;;;;;;;;5070383;27;45412;-64
2022/01/17 06:10:34;;;;;;;;;41.00;36.75;;;;;;;;5069811;27;45575;-64
2022/01/17 06:13:01;;;;;;;;;38.25;35.75;;;;;;;;5072791;28;46451;-63
2022/01/17 06:15:26;;;;;;;;;36.75;35.50;;;;;;;;5058806;28;45350;-65
2022/01/17 06:17:51;;;;;;;;;33.25;29.75;;;;;;;;5072523;27;45310;-65
2022/01/17 06:20:16;;;;;;;;;40.75;36.00;;;;;;;;5071151;27;45586;-64
2022/01/17 06:22:41;;;;;;;;;41.25;35.75;;;;;;;;5069157;28;45653;-65
2022/01/17 06:25:07;;;;;;;;;25.25;25.00;;;;;;;;5068817;27;45470;-65
2022/01/17 06:27:32;;;;;;;;;33.50;31.25;;;;;;;;5054425;28;45464;-65
2022/01/17 06:29:59;;;;;;;;;42.00;36.50;;;;;;;;5074126;27;45410;-65
2022/01/17 06:32:24;;;;;;;;;37.00;34.00;;;;;;;;5071293;27;46213;-66
2022/01/17 06:34:49;;;;;;;;;43.50;37.50;;;;;;;;5072021;27;45402;-65
2022/01/17 06:37:15;;;;;;;;;35.25;32.00;;;;;;;;5064019;28;45464;-66
2022/01/17 06:39:40;;;;;;;;;44.25;36.75;;;;;;;;5067753;28;45538;-67
2022/01/17 06:42:05;;;;;;;;;37.50;36.50;;;;;;;;5060816;28;45442;-65
2022/01/17 06:44:31;;;;;;;;;44.00;39.00;;;;;;;;5069504;27;45344;-65
2022/01/17 06:46:56;;;;;;;;;35.50;31.75;;;;;;;;5064991;28;45404;-65
2022/01/17 06:49:21;;;;;;;;;50.75;37.50;;;;;;;;5071250;28;45409;-64
2022/01/17 06:51:46;;;;;;;;;45.75;38.25;;;;;;;;5066415;28;45696;-65
2022/01/17 06:54:11;;;;;;;;;37.75;34.75;;;;;;;;5071993;28;46278;-65
2022/01/17 06:56:43;;;;;;;;;41.25;38.00;;;;;;;;5071763;28;45384;-65
2022/01/17 06:59:09;;;;;;;;;42.50;38.25;;;;;;;;5072182;27;45311;-66
2022/01/17 07:01:38;;;;;;;;;35.75;34.75;;;;;;;;5066032;28;48492;-65
2022/01/17 07:04:03;;;;;;;;;48.00;39.25;;;;;;;;5063210;28;45383;-64
2022/01/17 07:06:28;;;;;;;;;42.25;38.25;;;;;;;;5054656;28;45379;-65
2022/01/17 07:08:53;;;;;;;;;45.25;38.25;;;;;;;;5070263;27;45253;-64
2022/01/17 07:11:19;;;;;;;;;48.25;40.75;;;;;;;;5069815;27;45695;-66
2022/01/17 07:13:45;;;;;;;;;61.75;49.50;;;;;;;;5067357;28;45571;-65
2022/01/17 07:16:10;;;;;;;;;52.50;44.25;;;;;;;;5065967;28;45262;-66
2022/01/17 07:18:35;;;;;;;;;60.00;46.25;;;;;;;;5070852;28;45479;-65
2022/01/17 07:21:00;;;;;;;;;47.50;39.75;;;;;;;;5073471;27;46254;-65
2022/01/17 07:23:26;;;;;;;;;54.75;43.50;;;;;;;;5071335;27;47867;-64
2022/01/17 07:25:51;;;;;;;;;53.50;42.75;;;;;;;;5071931;27;45457;-64
2022/01/17 07:28:16;;;;;;;;;51.75;42.50;;;;;;;;5072156;27;45640;-65
2022/01/17 07:30:42;;;;;;;;;55.00;43.00;;;;;;;;5071402;28;45634;-63
2022/01/17 07:33:08;;;;;;;;;52.50;42.75;;;;;;;;5073177;27;45536;-64
2022/01/17 07:35:34;;;;;;;;;52.25;44.50;;;;;;;;5070837;27;45474;-65
2022/01/17 07:37:59;;;;;;;;;56.00;45.00;;;;;;;;5071399;27;45432;-64
2022/01/17 07:40:24;;;;;;;;;62.75;49.25;;;;;;;;5071167;27;45505;-65
2022/01/17 07:42:49;;;;;;;;;62.25;47.25;;;;;;;;5074688;27;45415;-65
2022/01/17 07:45:16;;;;;;;;;58.00;46.50;;;;;;;;5077119;27;45436;-66
2022/01/17 07:50:11;;;;;;;;;57.50;46.25;;;;;;;;5070221;27;45610;-66
2022/01/17 07:52:36;;;;;;;;;48.50;42.25;;;;;;;;5066870;28;45444;-66
2022/01/17 07:55:02;;;;;;;;;60.75;47.50;;;;;;;;5073710;27;45429;-66
2022/01/17 07:57:28;;;;;;;;;52.50;43.25;;;;;;;;5073342;28;45407;-65
2022/01/17 07:59:53;;;;;;;;;53.50;43.00;;;;;;;;5072479;28;46468;-65
2022/01/17 08:02:18;;;;;;;;;53.75;43.50;;;;;;;;5073722;27;45423;-65
2022/01/17 08:04:43;;;;;;;;;54.25;44.75;;;;;;;;5073842;28;45480;-66
2022/01/17 08:07:09;;;;;;;;;55.50;44.50;;;;;;;;5075329;27;45357;-64
2022/01/17 08:09:34;;;;;;;;;52.75;44.00;;;;;;;;5074115;27;45278;-65
2022/01/17 08:12:00;;;;;;;;;47.00;40.75;;;;;;;;5073659;28;45495;-65
2022/01/17 08:14:26;;;;;;;;;52.00;42.50;;;;;;;;5074869;27;45471;-65
2022/01/17 08:16:51;;;;;;;;;42.00;38.50;;;;;;;;5074420;27;45401;-65
2022/01/17 08:19:17;;;;;;;;;44.00;38.75;;;;;;;;5075228;27;46323;-65
2022/01/17 08:21:42;;;;;;;;;44.00;38.25;;;;;;;;5074231;28;45455;-65
2022/01/17 08:24:07;;;;;;;;;43.25;37.50;;;;;;;;5076699;28;45342;-65
2022/01/17 08:26:33;;;;;;;;;48.25;41.75;;;;;;;;5074383;27;45392;-65
2022/01/17 08:28:58;;;;;;;;;51.75;42.00;;;;;;;;5071948;28;45477;-64
2022/01/17 08:31:24;;;;;;;;;47.50;40.25;;;;;;;;5070317;28;46013;-64
2022/01/17 08:33:49;;;;;;;;;52.25;41.75;;;;;;;;5073644;27;45467;-64
2022/01/17 08:36:18;;;;;;;;;47.50;38.50;;;;;;;;5076217;27;45341;-65
2022/01/17 08:38:44;;;;;;;;;47.00;40.00;;;;;;;;5071405;28;47748;-65
2022/01/17 08:41:09;;;;;;;;;48.25;36.75;;;;;;;;5069746;27;45566;-67
2022/01/17 08:43:34;;;;;;;;;51.75;41.25;;;;;;;;5071317;27;45535;-66
2022/01/17 08:46:00;;;;;;;;;46.00;39.50;;;;;;;;5073540;27;45443;-68
2022/01/17 08:48:25;;;;;;;;;31.00;28.50;;;;;;;;5072773;28;47608;-67
2022/01/17 08:50:51;;;;;;;;;55.00;42.75;;;;;;;;5074668;28;45502;-66
2022/01/17 08:53:16;;;;;;;;;44.50;38.25;;;;;;;;5071931;28;45698;-67
2022/01/17 08:55:42;;;;;;;;;58.25;48.50;;;;;;;;5071998;27;45498;-65
2022/01/17 08:58:08;;;;;;;;;52.50;42.00;;;;;;;;5073350;27;45846;-65
2022/01/17 09:00:33;;;;;;;;;47.00;38.50;;;;;;;;5071796;27;45567;-65
2022/01/17 09:03:01;;;;;;;;;35.00;33.00;;;;;;;;5072523;28;45446;-66
2022/01/17 09:05:26;;;;;;;;;34.50;30.25;;;;;;;;5073692;28;45926;-66
2022/01/17 09:07:52;;;;;;;;;45.75;36.25;;;;;;;;5073240;27;45783;-67
2022/01/17 09:10:17;;;;;;;;;37.00;34.75;;;;;;;;5071654;28;45288;-67
2022/01/17 09:12:43;;;;;;;;;43.75;37.25;;;;;;;;5073414;28;45487;-66
2022/01/17 09:15:08;;;;;;;;;50.50;39.75;;;;;;;;5073882;28;45598;-66
2022/01/17 09:17:33;;;;;;;;;42.25;35.75;;;;;;;;5073432;28;45471;-66
2022/01/17 09:19:59;;;;;;;;;49.00;40.25;;;;;;;;5072419;27;45399;-66
2022/01/17 09:22:24;;;;;;;;;45.00;38.50;;;;;;;;5073273;27;45451;-65
2022/01/17 09:24:50;;;;;;;;;40.25;37.00;;;;;;;;5072765;28;45535;-66
2022/01/17 09:27:16;;;;;;;;;43.00;38.25;;;;;;;;5074841;28;46136;-66
2022/01/17 09:29:42;;;;;;;;;49.75;38.75;;;;;;;;5070379;28;45971;-66
2022/01/17 09:32:08;;;;;;;;;43.00;38.00;;;;;;;;5071225;28;45928;-66
2022/01/17 09:34:33;;;;;;;;;42.25;38.00;;;;;;;;5070632;27;45414;-66
2022/01/17 09:36:58;;;;;;;;;34.75;33.50;;;;;;;;5062691;28;45846;-67
2022/01/17 09:39:23;;;;;;;;;45.75;40.75;;;;;;;;5069996;28;45283;-67
2022/01/17 09:41:49;;;;;;;;;36.00;29.25;;;;;;;;5073277;28;45348;-67
2022/01/17 09:44:14;;;;;;;;;43.50;37.25;;;;;;;;5072250;28;45786;-68
2022/01/17 09:46:46;;;;;;;;;34.75;29.50;;;;;;;;5071797;27;46238;-68
2022/01/17 09:49:24;;;;;;;;;41.25;37.25;;;;;;;;5072942;27;45424;-68
2022/01/17 09:54:24;;;;;;;;;39.50;35.25;;;;;;;;5073523;27;45531;-67
2022/01/17 09:56:50;;;;;;;;;35.25;34.75;;;;;;;;5073528;28;45692;-68
2022/01/17 09:59:16;;;;;;;;;46.00;37.50;;;;;;;;5072475;27;45546;-67
2022/01/17 10:01:41;;;;;;;;;40.75;36.25;;;;;;;;5072637;28;45464;-68
2022/01/17 10:04:07;;;;;;;;;41.50;34.75;;;;;;;;5072066;27;45466;-67
2022/01/17 10:06:35;;;;;;;;;39.25;35.50;;;;;;;;5072219;27;46576;-67
2022/01/17 10:09:13;;;;;;;;;41.00;37.25;;;;;;;;5053109;28;45361;-68
2022/01/17 10:12:02;;;;;;;;;35.75;35.25;;;;;;;;5071981;28;45504;-68
2022/01/17 10:14:28;;;;;;;;;44.75;38.50;;;;;;;;5062533;28;45853;-68
2022/01/17 10:16:54;;;;;;;;;51.00;38.00;;;;;;;;5071956;27;46499;-68
2022/01/17 10:19:21;;;;;;;;;43.00;36.75;;;;;;;;5072355;27;45450;-68
2022/01/17 10:21:50;;;;;;;;;40.25;36.50;;;;;;;;5072621;27;45331;-66
2022/01/17 10:25:06;;;;;;;;;45.50;38.75;;;;;;;;5060434;28;45918;-66
2022/01/17 10:37:13;;;;;;;;;44.50;38.50;;;;;;;;5071951;28;45556;-66
2022/01/17 10:39:55;;;;;;;;;44.00;39.50;;;;;;;;5072484;27;45356;-66
2022/01/17 10:42:26;;;;;;;;;45.25;38.00;;;;;;;;5069805;28;45365;-64
2022/01/17 10:44:52;;;;;;;;;46.25;39.50;;;;;;;;5072751;28;45308;-66
2022/01/17 10:47:18;;;;;;;;;36.75;33.75;;;;;;;;5071975;28;46372;-66
2022/01/17 10:49:50;;;;;;;;;38.75;34.75;;;;;;;;5070227;28;45522;-66
2022/01/17 10:52:29;;;;;;;;;49.50;37.50;;;;;;;;5071864;27;45522;-67
2022/01/17 10:54:56;;;;;;;;;48.50;38.00;;;;;;;;5057513;27;45397;-67
2022/01/17 10:57:22;;;;;;;;;45.00;37.75;;;;;;;;5073058;27;47461;-67
2022/01/17 10:59:51;;;;;;;;;35.50;33.00;;;;;;;;5070724;27;45552;-67
2022/01/17 11:02:16;;;;;;;;;40.25;37.50;;;;;;;;5071328;27;45555;-66
2022/01/17 11:04:42;;;;;;;;;39.00;37.25;;;;;;;;5071538;27;45314;-66
2022/01/17 11:07:07;;;;;;;;;46.00;38.25;;;;;;;;5071572;28;45641;-67
2022/01/17 11:09:39;;;;;;;;;52.00;38.25;;;;;;;;5071138;27;46165;-66
2022/01/17 11:12:12;;;;;;;;;47.25;39.75;;;;;;;;5073820;27;45516;-66
2022/01/17 11:14:37;;;;;;;;;38.25;32.50;;;;;;;;5070973;27;45727;-66
2022/01/17 11:17:21;;;;;;;;;43.50;38.75;;;;;;;;5070876;28;47349;-66
2022/01/17 11:20:04;;;;;;;;;40.50;35.50;;;;;;;;5074732;27;45578;-66
2022/01/17 11:22:29;;;;;;;;;45.25;39.50;;;;;;;;5074397;27;45448;-65
2022/01/17 11:24:55;;;;;;;;;39.25;35.50;;;;;;;;5074131;28;45604;-65
2022/01/17 11:27:20;;;;;;;;;35.25;32.50;;;;;;;;5076464;27;45661;-65
2022/01/17 11:29:48;;;;;;;;;34.75;31.50;;;;;;;;5073891;28;45509;-65
2022/01/17 11:32:13;;;;;;;;;50.00;38.00;;;;;;;;5073609;27;45464;-65
2022/01/17 11:34:38;;;;;;;;;37.75;35.00;;;;;;;;5074581;27;45498;-66
2022/01/17 11:37:04;;;;;;;;;36.25;34.50;;;;;;;;5074486;27;45706;-65
2022/01/17 11:39:29;;;;;;;;;36.25;30.00;;;;;;;;5073846;28;46053;-66
2022/01/17 11:41:54;;;;;;;;;42.00;36.75;;;;;;;;5076135;28;45961;-66
2022/01/17 11:44:31;;;;;;;;;32.50;30.25;;;;;;;;5074309;28;45445;-67
2022/01/17 11:46:58;;;;;;;;;37.75;34.00;;;;;;;;5074188;27;45487;-66
2022/01/17 11:49:25;;;;;;;;;40.75;33.50;;;;;;;;5073341;28;45496;-67
2022/01/17 11:51:50;;;;;;;;;36.25;32.00;;;;;;;;5074635;27;45919;-66
2022/01/17 11:54:18;;;;;;;;;42.75;37.50;;;;;;;;5074815;28;46089;-66
2022/01/17 11:56:44;;;;;;;;;34.25;32.00;;;;;;;;5074100;28;45589;-67
2022/01/17 11:59:22;;;;;;;;;37.25;32.25;;;;;;;;5074073;28;45364;-65
2022/01/17 12:02:06;;;;;;;;;37.75;35.50;;;;;;;;5071393;28;45457;-67
2022/01/17 12:04:31;;;;;;;;;35.50;34.00;;;;;;;;5065018;28;45494;-66
2022/01/17 12:06:59;;;;;;;;;37.75;33.25;;;;;;;;5068998;28;46682;-66
2022/01/17 12:09:27;;;;;;;;;45.00;36.50;;;;;;;;5067404;28;45475;-66
2022/01/17 12:11:55;;;;;;;;;44.00;35.50;;;;;;;;5062479;28;45494;-65
2022/01/17 12:14:21;;;;;;;;;35.50;33.00;;;;;;;;5069547;27;45454;-66
2022/01/17 12:16:46;;;;;;;;;43.25;38.25;;;;;;;;5073848;28;46450;-65
2022/01/17 12:19:12;;;;;;;;;48.50;39.75;;;;;;;;5065051;28;46081;-65
2022/01/17 12:21:47;;;;;;;;;44.25;36.25;;;;;;;;5069592;28;45442;-66
2022/01/17 12:24:47;;;;;;;;;45.25;37.50;;;;;;;;5063977;28;45378;-66
2022/01/17 12:27:13;;;;;;;;;52.00;40.50;;;;;;;;4991971;28;46628;-65
2022/01/17 12:29:46;;;;;;;;;37.25;32.00;;;;;;;;4991009;28;46711;-66
2022/01/17 12:32:23;;;;;;;;;45.50;39.00;;;;;;;;4993097;28;46793;-66
2022/01/17 12:34:49;;;;;;;;;36.50;34.50;;;;;;;;4992692;28;45613;-66
2022/01/17 12:37:33;;;;;;;;;30.75;28.00;;;;;;;;4992335;28;45704;-66
2022/01/17 12:40:17;;;;;;;;;41.75;36.75;;;;;;;;4978574;28;45423;-67
2022/01/17 12:42:59;;;;;;;;;45.25;36.75;;;;;;;;4992317;28;45531;-65
2022/01/17 12:45:24;;;;;;;;;50.50;39.75;;;;;;;;4990419;28;45651;-67
2022/01/17 12:47:50;;;;;;;;;47.25;39.50;;;;;;;;4992113;28;46257;-64
2022/01/17 12:50:15;;;;;;;;;52.50;41.50;;;;;;;;4978049;28;45489;-66
2022/01/17 12:52:40;;;;;;;;;44.00;39.25;;;;;;;;5001261;28;45406;-67
2022/01/17 12:55:06;;;;;;;;;49.50;40.00;;;;;;;;4992329;28;45433;-66
2022/01/17 12:57:31;;;;;;;;;44.50;38.25;;;;;;;;4992643;28;45682;-67
2022/01/17 12:59:56;;;;;;;;;47.00;39.75;;;;;;;;4992016;28;45407;-67
2022/01/17 13:02:21;;;;;;;;;48.50;39.75;;;;;;;;5015320;27;45501;-68
2022/01/17 13:04:48;;;;;;;;;45.00;37.25;;;;;;;;5060692;28;45441;-68
2022/01/17 13:07:14;;;;;;;;;46.00;40.25;;;;;;;;5071416;28;48565;-67
2022/01/17 13:09:40;;;;;;;;;50.25;37.75;;;;;;;;5067755;27;45438;-67
2022/01/17 13:12:07;;;;;;;;;49.75;38.75;;;;;;;;5069291;28;45394;-65
2022/01/17 13:14:33;;;;;;;;;50.50;40.75;;;;;;;;5068311;28;44890;-65
2022/01/17 13:16:58;;;;;;;;;46.50;38.75;;;;;;;;5064681;28;46280;-67
2022/01/17 13:19:24;;;;;;;;;46.75;38.25;;;;;;;;5067720;28;45520;-67
2022/01/17 13:21:50;;;;;;;;;26.75;25.25;;;;;;;;5064075;28;45391;-66
2022/01/17 13:24:20;;;;;;;;;39.75;33.75;;;;;;;;5075043;28;45402;-66
2022/01/17 13:26:56;;;;;;;;;46.00;39.50;;;;;;;;5062008;28;47664;-67
2022/01/17 13:29:21;;;;;;;;;41.25;34.25;;;;;;;;5066909;28;45593;-67
2022/01/17 13:31:46;;;;;;;;;49.25;37.00;;;;;;;;5067975;28;45478;-66
2022/01/17 13:34:16;;;;;;;;;30.00;26.00;;;;;;;;5061773;28;45484;-66
2022/01/17 13:36:42;;;;;;;;;43.50;36.25;;;;;;;;5071482;28;45966;-66
2022/01/17 13:39:08;;;;;;;;;39.75;36.25;;;;;;;;5068194;27;45368;-66
2022/01/17 13:41:35;;;;;;;;;37.50;34.75;;;;;;;;5065949;28;45710;-66
2022/01/17 13:44:00;;;;;;;;;36.50;32.00;;;;;;;;5066633;27;45532;-65
2022/01/17 13:46:25;;;;;;;;;38.50;32.00;;;;;;;;5060178;28;47428;-67
2022/01/17 13:48:51;;;;;;;;;32.25;25.00;;;;;;;;5072007;27;45357;-67
2022/01/17 13:51:20;;;;;;;;;36.25;31.50;;;;;;;;5074950;28;45536;-68
2022/01/17 13:53:45;;;;;;;;;40.50;34.00;;;;;;;;5069981;28;45604;-67
2022/01/17 13:56:10;;;;;;;;;37.25;34.25;;;;;;;;5070142;28;47400;-66
2022/01/17 13:58:41;;;;;;;;;26.75;23.00;;;;;;;;5071902;27;45501;-67
2022/01/17 14:01:10;;;;;;;;;33.25;28.50;;;;;;;;5071380;28;45414;-66
2022/01/17 14:03:39;;;;;;;;;30.75;27.50;;;;;;;;5072528;28;45436;-67
2022/01/17 14:06:08;;;;;;;;;28.00;27.75;;;;;;;;5074149;27;45376;-66
2022/01/17 14:08:43;;;;;;;;;33.00;31.00;;;;;;;;5071517;27;45357;-66
2022/01/17 14:11:18;;;;;;;;;37.25;34.75;;;;;;;;5072250;27;45430;-66
2022/01/17 14:13:48;;;;;;;;;36.50;31.25;;;;;;;;5070552;28;45373;-67
2022/01/17 14:16:16;;;;;;;;;36.00;34.50;;;;;;;;5071324;27;45573;-66
2022/01/17 14:18:45;;;;;;;;;45.25;35.50;;;;;;;;5070059;28;45453;-67
2022/01/17 14:21:25;;;;;;;;;38.75;31.75;;;;;;;;5065597;27;45391;-66
2022/01/17 14:24:10;;;;;;;;;38.75;33.25;;;;;;;;5066473;28;45907;-67
2022/01/17 14:26:36;;;;;;;;;42.50;38.25;;;;;;;;5060258;28;45825;-67
2022/01/17 14:29:07;;;;;;;;;31.50;30.75;;;;;;;;5068056;28;45496;-66
2022/01/17 14:31:33;;;;;;;;;34.50;31.50;;;;;;;;5062437;27;45521;-66
2022/01/17 14:34:12;;;;;;;;;34.25;31.50;;;;;;;;5069859;27;45505;-68
2022/01/17 14:36:38;;;;;;;;;32.25;28.25;;;;;;;;5071478;28;45802;-66
2022/01/17 14:39:05;;;;;;;;;33.50;30.25;;;;;;;;5071196;27;46566;-67
2022/01/17 14:41:36;;;;;;;;;38.25;30.25;;;;;;;;5072033;27;45461;-66
2022/01/17 14:44:08;;;;;;;;;30.50;30.50;;;;;;;;5071503;28;45422;-68
2022/01/17 14:46:34;;;;;;;;;32.25;30.25;;;;;;;;5071185;27;46530;-67
2022/01/17 14:49:00;;;;;;;;;31.00;31.00;;;;;;;;5069910;28;45531;-66
2022/01/17 14:51:27;;;;;;;;;29.75;28.50;;;;;;;;5071374;27;45623;-67